Latest Weather Observations for Casino

IDN60801

Issued at 3:35 pm EDT Wednesday 22 October 2014 (issued every 30 minutes, with the page automatically refreshed every 10 minutes)

About weather observations | Map of weather stations | Latest weather observations for NSW | Other Formats
Station Details ID: 058208 Name: CASINO AIRPORT AWS Lat: -28.88 Lon: 153.06 Height: 20.9 m
Data from the previous 72 hours. | See also: Recent months at Casino
Date/Time
EDT
Temp
°C
App
Temp
°C
Dew
Point
Rel
Hum
%
Delta-T
°C
Wind Press
QNH
hPa
Press
MSL
hPa
Rain
since 9 am
mm
Dir
 
Spd
km/h
Gust
km/h
Spd
kts
Gust
kts
22/03:30pm 24.0 20.2 9.9 41 7.7 E 20 28 11 15 1022.7 1022.6 0.0
22/03:00pm 24.3 21.8 10.9 43 7.5 E 15 26 8 14 1023.0 1022.9 0.0
22/02:30pm 24.1 20.3 11.1 44 7.3 ESE 22 35 12 19 1023.4 1023.3 0.0
22/02:00pm 23.6 20.2 11.3 46 6.9 ESE 20 30 11 16 1024.0 1023.9 0.0
22/01:30pm 22.4 18.5 12.1 52 5.8 ESE 24 28 13 15 1024.5 1024.4 0.0
22/01:00pm 22.6 19.7 9.7 44 7.0 SE 15 22 8 12 1024.8 1024.7 0.0
22/12:30pm 22.6 20.5 11.0 48 6.4 E 13 20 7 11 1025.5 1025.4 0.0
22/12:00pm 21.8 19.0 11.5 52 5.7 E 17 24 9 13 1026.0 1025.9 0.0
22/11:30am 19.9 16.0 12.2 61 4.3 SE 24 32 13 17 1026.5 1026.4 0.0
22/11:00am 19.8 15.5 12.1 61 4.3 SE 26 39 14 21 1026.6 1026.5 0.0
22/10:30am 21.3 19.6 11.1 52 5.6 E 11 22 6 12 1026.5 1026.4 0.0
22/10:00am 21.6 20.5 11.9 54 5.4 S 9 15 5 8 1026.6 1026.5 0.0
22/09:30am 20.9 20.4 12.8 60 4.6 S 7 19 4 10 1026.6 1026.5 0.0
22/09:00am 18.2 17.0 12.9 71 3.0 S 11 13 6 7 1026.8 1026.7 0.0
22/08:30am 17.7 16.5 12.8 73 2.7 SSW 11 17 6 9 1026.7 1026.6 0.0
22/08:00am 16.7 15.8 13.6 82 1.7 SW 11 15 6 8 1026.5 1026.4 0.0
22/07:30am 15.2 14.8 12.9 86 1.3 S 7 9 4 5 1026.7 1026.6 0.0
22/07:00am 14.5 14.9 12.5 88 1.1 S 2 6 1 3 1026.5 1026.4 0.0
22/06:30am 13.7 13.4 11.4 86 1.2 SE 4 7 2 4 1026.5 1026.4 0.0
22/06:00am 14.3 13.5 11.6 84 1.4 S 7 11 4 6 1026.0 1025.9 0.0
22/05:30am 14.5 13.0 11.8 84 1.5 SW 11 15 6 8 1025.7 1025.6 0.0
22/05:00am 14.8 12.9 11.9 83 1.6 SSW 13 17 7 9 1025.9 1025.8 0.0
22/04:30am 15.0 13.2 12.1 83 1.6 S 13 19 7 10 1026.1 1026.0 0.0
22/04:00am 15.1 14.5 12.2 83 1.6 S 7 9 4 5 1026.3 1026.2 0.0
22/03:30am 15.6 14.6 12.2 80 1.9 S 9 13 5 7 1026.4 1026.3 0.0
22/03:00am 15.5 14.0 11.9 79 1.9 S 11 15 6 8 1026.7 1026.6 0.0
22/02:30am 15.7 14.2 11.9 78 2.1 SW 11 15 6 8 1026.8 1026.7 0.0
22/02:00am 15.7 14.6 11.9 78 2.1 SSW 9 15 5 8 1027.2 1027.1 0.0
22/01:30am 15.8 14.7 12.0 78 2.1 SSW 9 13 5 7 1027.7 1027.6 0.0
22/01:00am 15.6 14.5 12.0 79 1.9 S 9 13 5 7 1028.2 1028.1 0.0
22/12:30am 15.2 14.4 11.8 80 1.8 SSW 7 11 4 6 1028.4 1028.3 0.0
22/12:00am 15.8 14.7 12.0 78 2.1 SSW 9 13 5 7 1028.8 1028.7 0.0
 
Date/Time
EDT
Temp
°C
App
Temp
°C
Dew
Point
Rel
Hum
%
Delta-T
°C
Wind Press
QNH
hPa
Press
MSL
hPa
Rain
since 9 am
mm
Dir
 
Spd
km/h
Gust
km/h
Spd
kts
Gust
kts
21/11:30pm 14.5 13.6 11.3 81 1.7 SSW 7 9 4 5 1029.0 1028.9 0.0
21/11:00pm 14.4 13.6 11.7 84 1.4 SW 7 9 4 5 1029.0 1028.9 0.0
21/10:30pm 13.4 13.6 10.6 83 1.5 CALM 0 0 0 0 1029.2 1029.1 0.0
21/10:00pm 13.9 13.0 10.7 81 1.7 W 6 7 3 4 1029.2 1029.1 0.0
21/09:30pm 14.6 14.9 10.8 78 2.0 CALM 0 0 0 0 1029.0 1028.9 0.0
21/09:00pm 15.4 14.3 10.8 74 2.4 SE 7 11 4 6 1028.9 1028.8 0.0
21/08:30pm 16.7 14.2 11.2 70 3.0 SE 15 19 8 10 1028.7 1028.6 0.0
21/08:00pm 17.4 14.0 11.2 67 3.3 SE 20 28 11 15 1028.3 1028.2 0.0
21/07:30pm 18.4 14.6 11.0 62 4.0 SE 22 32 12 17 1027.8 1027.7 0.0
21/07:00pm 18.7 15.3 10.5 59 4.4 SE 19 30 10 16 1027.6 1027.5 0.0
21/06:30pm 19.2 14.5 10.7 58 4.6 SE 26 33 14 18 1027.4 1027.3 0.0
21/06:00pm 20.2 15.0 10.3 53 5.3 ESE 28 35 15 19 1027.1 1027.0 0.0
21/05:30pm 21.4 17.8 11.7 54 5.4 SE 22 37 12 20 1026.8 1026.7 0.0
21/05:00pm 21.2 17.0 11.2 53 5.5 SE 24 44 13 24 1026.7 1026.6 0.0
21/04:30pm 21.7 17.5 11.1 51 5.9 ESE 24 39 13 21 1026.5 1026.4 0.0
21/04:00pm 21.9 17.8 11.6 52 5.7 SE 24 39 13 21 1026.7 1026.6 0.0
21/03:30pm 21.8 17.8 10.6 49 6.1 SE 22 33 12 18 1026.7 1026.6 0.0
21/03:00pm 22.7 19.9 11.4 49 6.3 SSE 17 24 9 13 1026.7 1026.6 0.0
21/02:30pm 23.0 20.9 12.3 51 6.1 SSE 15 22 8 12 1027.1 1027.0 0.0
21/02:00pm 22.8 20.4 11.5 49 6.3 SE 15 22 8 12 1027.4 1027.3 0.0
21/01:30pm 21.8 18.4 10.6 49 6.1 SSE 19 28 10 15 1027.9 1027.8 0.0
21/01:00pm 21.1 17.9 11.4 54 5.3 SSE 19 28 10 15 1028.4 1028.3 0.0
21/12:30pm 21.5 18.4 12.1 55 5.3 SE 20 32 11 17 1028.7 1028.6 0.0
21/12:00pm 21.3 18.1 13.0 59 4.7 S 22 32 12 17 1028.9 1028.8 0.0
21/11:30am 21.1 18.4 12.8 59 4.7 S 19 30 10 16 1029.1 1029.0 0.0
21/11:00am 22.7 19.4 12.9 54 5.6 SSE 22 33 12 18 1029.0 1028.9 0.0
21/10:30am 23.5 20.5 13.7 54 5.7 S 22 35 12 19 1029.0 1028.9 0.0
21/10:00am 21.3 18.3 12.4 57 5.0 S 20 30 11 16 1029.1 1029.0 0.0
21/09:30am 20.8 18.3 12.2 58 4.8 S 17 26 9 14 1029.0 1028.9 0.0
21/09:00am 20.2 17.8 12.7 62 4.2 SSE 17 26 9 14 1028.8 1028.7 0.0
21/08:30am 19.8 18.0 13.3 66 3.7 S 15 20 8 11 1028.5 1028.4 0.0
21/08:00am 19.1 17.4 13.5 70 3.2 S 15 22 8 12 1028.3 1028.2 0.0
21/07:30am 18.7 17.4 13.6 72 2.9 S 13 19 7 10 1028.0 1027.9 0.0
21/07:00am 18.4 17.5 13.7 74 2.7 S 11 15 6 8 1027.8 1027.7 0.0
21/06:30am 18.1 16.8 13.8 76 2.5 S 13 20 7 11 1027.5 1027.4 0.0
21/06:00am 18.1 17.2 13.8 76 2.4 S 11 15 6 8 1027.2 1027.1 0.0
21/05:30am 18.2 16.9 13.7 75 2.6 S 13 17 7 9 1026.8 1026.7 0.0
21/05:00am 18.2 17.3 13.7 75 2.5 S 11 17 6 9 1026.5 1026.4 0.0
21/04:30am 18.3 16.3 13.8 75 2.6 S 17 22 9 12 1026.5 1026.4 0.0
21/04:00am 18.3 17.1 14.0 76 2.4 S 13 17 7 9 1026.5 1026.4 0.0
21/03:30am 18.3 16.7 13.8 75 2.6 S 15 22 8 12 1026.6 1026.5 0.0
21/03:00am 18.3 16.7 14.0 76 2.4 S 15 20 8 11 1026.7 1026.6 0.0
21/02:30am 18.5 16.2 14.2 76 2.5 S 19 24 10 13 1026.8 1026.7 0.0
21/02:00am 18.5 16.5 14.0 75 2.6 S 17 28 9 15 1027.0 1026.9 0.0
21/01:30am 18.1 16.8 13.6 75 2.6 S 13 19 7 10 1027.1 1027.0 0.0
21/01:00am 19.1 17.1 12.6 66 3.6 S 15 22 8 12 1027.2 1027.1 0.0
21/12:30am 19.3 18.1 12.8 66 3.7 SSW 11 13 6 7 1027.4 1027.3 0.0
21/12:00am 19.0 18.3 13.2 69 3.3 S 9 13 5 7 1027.7 1027.6 0.0
 
Date/Time
EDT
Temp
°C
App
Temp
°C
Dew
Point
Rel
Hum
%
Delta-T
°C
Wind Press
QNH
hPa
Press
MSL
hPa
Rain
since 9 am
mm
Dir
 
Spd
km/h
Gust
km/h
Spd
kts
Gust
kts
20/11:30pm 19.7 18.2 13.2 66 3.7 S 13 19 7 10 1027.9 1027.8 0.0
20/11:00pm 19.7 17.5 13.2 66 3.7 S 17 20 9 11 1028.1 1028.0 0.0
20/10:30pm 19.4 18.1 13.8 70 3.2 S 13 19 7 10 1028.1 1028.0 0.0
20/10:00pm 20.0 18.3 13.7 67 3.6 S 15 24 8 13 1027.9 1027.8 0.0
20/09:30pm 20.2 18.1 13.6 66 3.8 S 17 30 9 16 1027.8 1027.7 0.0
20/09:00pm 20.3 18.6 13.7 66 3.8 S 15 28 8 15 1027.4 1027.3 0.0
20/08:30pm 20.7 18.7 13.9 65 3.9 S 17 28 9 15 1027.0 1026.9 0.0
20/08:00pm 20.6 19.4 14.0 66 3.8 SSE 13 20 7 11 1026.4 1026.3 0.0
20/07:30pm 20.9 20.1 14.1 65 3.9 SSE 11 19 6 10 1026.1 1026.0 0.0
20/07:00pm 21.3 19.4 14.2 64 4.1 SSE 17 26 9 14 1025.6 1025.5 0.0
20/06:30pm 21.8 19.3 14.2 62 4.4 SSE 20 37 11 20 1025.2 1025.1 0.0
20/06:00pm 22.3 18.0 13.1 56 5.3 SSE 28 46 15 25 1024.9 1024.8 0.0
20/05:57pm 22.4 18.0 12.9 55 5.4 SE 28 46 15 25 1024.8 1024.7 0.0
20/05:30pm 24.4 21.2 12.0 46 7.1 SSE 20 32 11 17 1024.2 1024.1 0.0
20/05:00pm 25.0 19.6 10.8 41 7.9 SE 30 41 16 22 1023.5 1023.4 0.0
20/04:30pm 26.7 20.8 9.1 33 9.6 SE 30 44 16 24 1022.9 1022.8 0.0
20/04:00pm 27.7 22.2 10.4 34 9.7 ESE 30 41 16 22 1022.3 1022.2 0.0
20/03:30pm 29.1 24.3 10.3 31 10.6 ESE 26 37 14 20 1022.0 1021.9 0.0
20/03:00pm 29.5 26.3 11.1 32 10.5 ESE 19 24 10 13 1021.8 1021.7 0.0
20/02:30pm 29.3 25.7 9.9 30 10.9 ESE 19 26 10 14 1022.2 1022.1 0.0
20/02:00pm 29.0 26.7 10.6 32 10.4 SE 13 20 7 11 1022.5 1022.4 0.0
20/01:30pm 28.1 25.5 10.8 34 9.8 E 15 20 8 11 1022.7 1022.6 0.0
20/01:00pm 27.8 25.8 10.1 33 9.9 NNE 11 17 6 9 1022.9 1022.8 0.0
20/12:30pm 27.3 25.8 10.5 35 9.5 NNE 9 11 5 6 1023.3 1023.2 0.0
20/12:00pm 27.0 25.8 10.2 35 9.4 NNE 7 11 4 6 1023.7 1023.6 0.0
20/11:30am 25.3 24.1 10.4 39 8.3 NNE 7 15 4 8 1024.1 1024.0 0.0
20/11:00am 24.8 22.5 10.3 40 8.0 NNW 13 20 7 11 1024.4 1024.3 0.0
20/10:30am 23.7 21.7 11.4 46 6.9 N 13 24 7 13 1024.8 1024.7 0.0
20/10:00am 22.6 20.7 11.7 50 6.1 N 13 17 7 9 1024.9 1024.8 0.0
20/09:30am 21.8 20.0 12.1 54 5.5 NNW 13 22 7 12 1025.1 1025.0 0.0
20/09:00am 20.1 18.9 11.6 58 4.7 NW 9 15 5 8 1025.2 1025.1 0.0
20/08:30am 18.2 17.0 11.7 66 3.6 NNW 9 13 5 7 1025.2 1025.1 0.0
20/08:00am 15.7 13.9 10.9 73 2.5 NW 11 13 6 7 1025.3 1025.2 0.0
20/07:30am 13.9 12.1 10.9 82 1.6 NW 11 15 6 8 1025.2 1025.1 0.0
20/07:00am 12.4 11.3 10.5 88 1.0 NW 7 13 4 7 1025.1 1025.0 0.0
20/06:30am 10.8 9.3 9.2 90 0.8 WNW 7 9 4 5 1024.9 1024.8 0.0
20/06:00am 10.9 9.5 9.5 91 0.7 WNW 7 11 4 6 1024.8 1024.7 0.0
20/05:30am 10.5 9.1 8.9 90 0.8 WNW 6 7 3 4 1024.6 1024.5 0.0
20/05:00am 10.3 8.6 8.2 87 1.0 NW 7 7 4 4 1024.6 1024.5 0.0
20/04:30am 11.0 9.1 9.1 88 0.9 WNW 9 9 5 5 1024.7 1024.6 0.0
20/04:00am 10.7 9.2 9.1 90 0.8 WNW 7 7 4 4 1024.7 1024.6 0.0
20/03:30am 10.7 9.2 9.3 91 0.7 WNW 7 7 4 4 1024.7 1024.6 0.0
20/03:00am 10.3 8.8 8.6 89 0.8 WNW 6 7 3 4 1024.9 1024.8 0.0
20/02:30am 10.2 9.1 8.3 88 0.9 NNW 4 6 2 3 1025.1 1025.0 0.0
20/02:00am 10.9 9.6 9.2 89 0.8 NNW 6 7 3 4 1025.5 1025.4 0.0
20/01:30am 10.7 10.4 8.5 86 1.1 CALM 0 0 0 0 1025.9 1025.8 0.0
20/01:00am 11.0 10.7 8.8 86 1.1 CALM 0 0 0 0 1026.1 1026.0 0.0
20/12:30am 11.4 11.1 8.6 83 1.4 CALM 0 0 0 0 1026.5 1026.4 0.0
20/12:00am 12.7 11.5 9.7 82 1.5 S 6 9 3 5 1026.6 1026.5 0.0
 
Date/Time
EDT
Temp
°C
App
Temp
°C
Dew
Point
Rel
Hum
%
Delta-T
°C
Wind Press
QNH
hPa
Press
MSL
hPa
Rain
since 9 am
mm
Dir
 
Spd
km/h
Gust
km/h
Spd
kts
Gust
kts
19/11:30pm 13.1 11.8 9.9 81 1.6 S 7 9 4 5 1026.8 1026.7 0.0
19/11:00pm 13.3 11.9 9.7 79 1.8 S 7 9 4 5 1026.7 1026.6 0.0
19/10:30pm 13.7 12.4 10.1 79 1.9 S 7 9 4 5 1026.5 1026.4 0.0
19/10:00pm 13.7 12.3 9.7 77 2.0 SSE 7 9 4 5 1026.3 1026.2 0.0
19/09:30pm 14.3 12.9 9.7 74 2.4 S 7 9 4 5 1026.2 1026.1 0.0
19/09:00pm 15.2 13.4 9.6 69 2.9 SE 9 11 5 6 1025.9 1025.8 0.0
19/08:30pm 15.5 13.4 9.6 68 3.1 ESE 11 15 6 8 1025.6 1025.5 0.0
19/08:00pm 15.6 13.1 9.7 68 3.1 ESE 13 15 7 8 1025.2 1025.1 0.0
19/07:30pm 16.8 14.1 8.8 59 4.1 E 13 17 7 9 1024.9 1024.8 0.0
19/07:00pm 18.6 15.6 9.1 54 4.9 E 15 19 8 10 1024.5 1024.4 0.0
19/06:30pm 20.5 16.1 9.1 48 6.0 E 22 30 12 16 1024.2 1024.1 0.0
19/06:00pm 21.7 17.1 9.6 46 6.5 E 24 32 13 17 1023.8 1023.7 0.0
19/05:30pm 23.0 18.8 9.8 43 7.2 E 22 30 12 16 1023.7 1023.6 0.0
19/05:00pm 24.0 20.0 10.3 42 7.5 E 22 32 12 17 1023.6 1023.5 0.0
19/04:30pm 24.7 20.4 10.6 41 7.8 E 24 30 13 16 1023.5 1023.4 0.0
19/04:00pm 24.8 21.6 9.9 39 8.2 E 17 26 9 14 1023.5 1023.4 0.0

Other Formats:

Comma delimited format used in spreadsheet applications
http://www.bom.gov.au/fwo/IDN60801/IDN60801.94573.axf

JavaScript Object Notation format (JSON) in row-major order
http://www.bom.gov.au/fwo/IDN60801/IDN60801.94573.json